Malvina, Mississippi
Current Conditions -  °F | °C
As of 5:15 PM on Friday 19 Dec 2014 (Local Time) from KRNV Reporting Station
Scattered Clouds Scattered Clouds  
Wind Chill:   Ceiling: Unl
Heat Index:   Visibility: 10mi
Dew Point:   Wind: 8mph
Humidity: 94%   Direction: 30°NNE
Pressure: 30.18"   Gusts: NA
Location:  33.8277°N, 90.9559°W
Report Text: KRNV 192315Z AUTO 03007KT 10SM SCT026 SCT120 07/06 A3018 RMK AO2 T00660057
Loading
Personal Weather Stations






























Interactive Weather Map New forecast layout! Learn more

10-Day Weather Forecast

Advertisements
Track Severe Weather on mobile